Kine — C6WT4 — position and weather

sailwx.info

Track history (hours):
 
Tides and Currents Weather Stations Pressure Air Temp Water Temp Dewpoint Dewpoint Depression Visibility Wind Speed Wind Dir Waves Ship Positions

Kine

Last reported at 2014-Nov-27 21:18 UTC. Time now 2014-Nov-28 15:54 UTC.
Position N 59°04' E 009°39'.

Length 89 m; draft 3.3 m.

Type: Cargo ship. MMSI: 311117000.

Date/timePositionNaut miles runAvg speedWind from/ knotsBaromVisibWave heightAir tempDewpointWater temp
2014-Nov-27 21:18N 59°04' E 009°39'5 7.0
2014-Nov-27 20:33N 59°09' E 009°39'2 1.9
2014-Nov-27 19:29N 59°11' E 009°37'0 0.0
2014-Nov-27 18:32N 59°11' E 009°37'0 0.0
2014-Nov-27 17:32N 59°11' E 009°38'0 0.0
2014-Nov-27 16:32N 59°11' E 009°38'0 0.0
2014-Nov-27 15:17N 59°11' E 009°37'0 0.0
2014-Nov-27 14:32N 59°11' E 009°38'0 0.0
2014-Nov-27 13:32N 59°11' E 009°38'0 0.0
2014-Nov-27 12:32N 59°11' E 009°37'0 0.0
2014-Nov-27 11:23N 59°11' E 009°37'0 0.0
2014-Nov-27 10:20N 59°11' E 009°37'0 0.0
2014-Nov-27 09:20N 59°11' E 009°37'0 0.0
2014-Nov-27 08:23N 59°11' E 009°37'0 0.0
2014-Nov-27 07:11N 59°11' E 009°37'0 0.0
2014-Nov-27 06:23N 59°11' E 009°37'0 0.0
2014-Nov-27 05:33N 59°11' E 009°37'4 4.1
2014-Nov-27 04:31N 59°07' E 009°36'30 5.8
2014-Nov-26 23:24N 59°00' E 010°32'53 1.7
2014-Nov-25 17:17N 59°53' E 010°39'3 4.3
2014-Nov-25 16:33N 59°53' E 010°45'0 0.0
2014-Nov-25 15:33N 59°53' E 010°45'0 0.0
2014-Nov-25 14:33N 59°53' E 010°45'0 0.0
2014-Nov-25 13:18N 59°53' E 010°45'0 0.0
2014-Nov-25 12:33N 59°53' E 010°45'0 0.0
2014-Nov-25 11:33N 59°53' E 010°45'0 0.0
2014-Nov-25 10:24N 59°53' E 010°45'0 0.0
2014-Nov-25 09:24N 59°53' E 010°45'0 0.0
2014-Nov-25 08:21N 59°53' E 010°45'0 0.0
2014-Nov-25 07:27N 59°53' E 010°45'0 0.0
2014-Nov-25 06:30N 59°53' E 010°45'0 0.0
2014-Nov-25 05:30N 59°53' E 010°45'0 0.0
2014-Nov-25 04:30N 59°53' E 010°45'0 0.0
2014-Nov-25 03:33N 59°53' E 010°45'0 0.0
2014-Nov-25 02:33N 59°53' E 010°45'0 0.0
2014-Nov-25 01:33N 59°53' E 010°45'0 0.0
2014-Nov-25 00:33N 59°53' E 010°45'0 0.0
2014-Nov-24 23:33N 59°53' E 010°45'0 0.0
2014-Nov-24 22:33N 59°53' E 010°45'0 0.0
2014-Nov-24 21:33N 59°53' E 010°45'0 0.0
2014-Nov-24 20:09N 59°53' E 010°45'0 0.0
2014-Nov-24 19:24N 59°53' E 010°45'0 0.0
2014-Nov-24 18:27N 59°53' E 010°45'0 0.0
2014-Nov-24 17:27N 59°53' E 010°45'0 0.0
2014-Nov-24 16:30N 59°53' E 010°45'0 0.0
2014-Nov-24 15:15N 59°53' E 010°45'0 0.0
2014-Nov-24 14:27N 59°53' E 010°45'0 0.0
2014-Nov-24 13:33N 59°53' E 010°45'0 0.0
2014-Nov-24 12:33N 59°53' E 010°45'0 0.0
2014-Nov-24 11:33N 59°53' E 010°45'0 0.0
2014-Nov-24 10:33N 59°53' E 010°45'0 0.0
2014-Nov-24 09:18N 59°53' E 010°45'0 0.0
2014-Nov-24 08:33N 59°53' E 010°45'0 0.0
2014-Nov-24 07:33N 59°53' E 010°45'0 0.0
2014-Nov-24 06:24N 59°53' E 010°45'0 0.0
2014-Nov-24 05:27N 59°53' E 010°45'0 0.0
2014-Nov-24 04:27N 59°53' E 010°45'0 0.0
2014-Nov-24 03:27N 59°53' E 010°45'0 0.0
2014-Nov-24 02:30N 59°53' E 010°45'0 0.0
2014-Nov-24 01:30N 59°53' E 010°45'0 0.0
2014-Nov-24 00:30N 59°53' E 010°45'0 0.0
2014-Nov-23 23:33N 59°53' E 010°45'1 1.3
2014-Nov-23 22:33N 59°53' E 010°43'73 1.7
2014-Nov-22 03:27N 58°39' E 010°49'8 9.4
2014-Nov-22 02:33N 58°31' E 010°53'10 9.6
2014-Nov-22 01:33N 58°22' E 010°59'1010.0
2014-Nov-22 00:33N 58°13' E 011°04'10 9.9
2014-Nov-21 23:33N 58°03' E 011°09'9 9.3
2014-Nov-21 22:33N 57°54' E 011°13'9 9.2
2014-Nov-21 21:34N 57°45' E 011°17'9 8.8
2014-Nov-21 20:33N 57°37' E 011°23'9 9.1
2014-Nov-21 19:33N 57°28' E 011°29'66 9.4
2014-Nov-21 12:34N 56°28' E 012°15'9 9.2
2014-Nov-21 11:33N 56°19' E 012°22'9 9.3
2014-Nov-21 10:33N 56°11' E 012°29'1010.2
2014-Nov-21 09:33N 56°03' E 012°40'9 9.4
2014-Nov-21 08:33N 55°54' E 012°44'9 9.4
2014-Nov-21 07:33N 55°44' E 012°42'9 9.5
2014-Nov-21 06:33N 55°35' E 012°42'9 9.2
2014-Nov-21 05:33N 55°26' E 012°42'10 9.3
2014-Nov-21 04:32N 55°16' E 012°40'53 8.7
2014-Nov-20 22:27N 54°26' E 012°12'8 9.2
2014-Nov-20 21:33N 54°18' E 012°06'9 8.6
2014-Nov-20 20:33N 54°10' E 012°07'1 0.3
2014-Nov-20 18:23N 54°09' E 012°07'0 0.0
2014-Nov-20 17:05N 54°09' E 012°07'0 0.0
2014-Nov-20 16:29N 54°09' E 012°07'0 0.0
2014-Nov-20 15:32N 54°09' E 012°07'0 0.0
2014-Nov-20 14:23N 54°09' E 012°07'0 0.0
2014-Nov-20 13:32N 54°09' E 012°07'0 0.0
2014-Nov-20 12:32N 54°09' E 012°07'0 0.0
2014-Nov-20 11:29N 54°09' E 012°07'0 0.0
2014-Nov-20 10:32N 54°09' E 012°07'0 0.0
2014-Nov-20 08:14N 54°09' E 012°07'0 0.0
2014-Nov-20 06:15N 54°09' E 012°07'2 2.1
2014-Nov-20 05:27N 54°10' E 012°06'6 6.7
2014-Nov-20 04:33N 54°16' E 012°02'6 5.8
2014-Nov-20 03:32N 54°22' E 012°05'7 7.4
2014-Nov-20 02:33N 54°28' E 012°10'38 7.2
2014-Nov-19 21:19N 55°04' E 012°34'6 7.8
2014-Nov-19 20:34N 55°10' E 012°32'8 7.8
2014-Nov-19 19:33N 55°17' E 012°30'8 7.7
2014-Nov-19 18:34N 55°24' E 012°25'8 8.0
2014-Nov-19 17:33N 55°27' E 012°12'0 0.3
2014-Nov-19 16:28N 55°27' E 012°12'0 0.0
2014-Nov-19 15:31N 55°27' E 012°12'0 0.0
2014-Nov-19 14:28N 55°27' E 012°12'0 0.0
2014-Nov-19 11:13N 55°27' E 012°12'3 1.0
2014-Nov-19 08:28N 55°28' E 012°16'8 9.4
2014-Nov-19 07:33N 55°30' E 012°31'8 8.0
2014-Nov-19 06:33N 55°35' E 012°42'9 8.8
2014-Nov-19 05:33N 55°44' E 012°41'9 9.0
2014-Nov-19 04:33N 55°53' E 012°39'9 8.8
2014-Nov-19 03:33N 56°01' E 012°38'6 6.2
2014-Nov-19 02:33N 56°06' E 012°32'7 6.9
2014-Nov-19 01:34N 56°10' E 012°21'7 6.9
2014-Nov-19 00:34N 56°14' E 012°11'6 6.3
2014-Nov-18 23:33N 56°19' E 012°03'74 8.2
2014-Nov-18 14:33N 57°28' E 011°16'8 8.2
2014-Nov-18 13:33N 57°35' E 011°07'  
Track history (hours):
 
Tides and Currents Weather Stations Pressure Air Temp Water Temp Dewpoint Dewpoint Depression Visibility Wind Speed Wind Dir Waves Ship Positions

Kine

Last reported at 2014-Nov-27 21:18 UTC. Time now 2014-Nov-28 15:54 UTC.
Position N 59°04' E 009°39'.

Length 89 m; draft 3.3 m.

Type: Cargo ship. MMSI: 311117000.

Date/timePositionNaut miles runAvg speedWind from/ knotsBaromVisibWave heightAir tempDewpointWater temp
2014-Nov-27 21:18N 59°04' E 009°39'5 7.0
2014-Nov-27 20:33N 59°09' E 009°39'2 1.9
2014-Nov-27 19:29N 59°11' E 009°37'0 0.0
2014-Nov-27 18:32N 59°11' E 009°37'0 0.0
2014-Nov-27 17:32N 59°11' E 009°38'0 0.0
2014-Nov-27 16:32N 59°11' E 009°38'0 0.0
2014-Nov-27 15:17N 59°11' E 009°37'0 0.0
2014-Nov-27 14:32N 59°11' E 009°38'0 0.0
2014-Nov-27 13:32N 59°11' E 009°38'0 0.0
2014-Nov-27 12:32N 59°11' E 009°37'0 0.0
2014-Nov-27 11:23N 59°11' E 009°37'0 0.0
2014-Nov-27 10:20N 59°11' E 009°37'0 0.0
2014-Nov-27 09:20N 59°11' E 009°37'0 0.0
2014-Nov-27 08:23N 59°11' E 009°37'0 0.0
2014-Nov-27 07:11N 59°11' E 009°37'0 0.0
2014-Nov-27 06:23N 59°11' E 009°37'0 0.0
2014-Nov-27 05:33N 59°11' E 009°37'4 4.1
2014-Nov-27 04:31N 59°07' E 009°36'30 5.8
2014-Nov-26 23:24N 59°00' E 010°32'53 1.7
2014-Nov-25 17:17N 59°53' E 010°39'3 4.3
2014-Nov-25 16:33N 59°53' E 010°45'0 0.0
2014-Nov-25 15:33N 59°53' E 010°45'0 0.0
2014-Nov-25 14:33N 59°53' E 010°45'0 0.0
2014-Nov-25 13:18N 59°53' E 010°45'0 0.0
2014-Nov-25 12:33N 59°53' E 010°45'0 0.0
2014-Nov-25 11:33N 59°53' E 010°45'0 0.0
2014-Nov-25 10:24N 59°53' E 010°45'0 0.0
2014-Nov-25 09:24N 59°53' E 010°45'0 0.0
2014-Nov-25 08:21N 59°53' E 010°45'0 0.0
2014-Nov-25 07:27N 59°53' E 010°45'0 0.0
2014-Nov-25 06:30N 59°53' E 010°45'0 0.0
2014-Nov-25 05:30N 59°53' E 010°45'0 0.0
2014-Nov-25 04:30N 59°53' E 010°45'0 0.0
2014-Nov-25 03:33N 59°53' E 010°45'0 0.0
2014-Nov-25 02:33N 59°53' E 010°45'0 0.0
2014-Nov-25 01:33N 59°53' E 010°45'0 0.0
2014-Nov-25 00:33N 59°53' E 010°45'0 0.0
2014-Nov-24 23:33N 59°53' E 010°45'0 0.0
2014-Nov-24 22:33N 59°53' E 010°45'0 0.0
2014-Nov-24 21:33N 59°53' E 010°45'0 0.0
2014-Nov-24 20:09N 59°53' E 010°45'0 0.0
2014-Nov-24 19:24N 59°53' E 010°45'0 0.0
2014-Nov-24 18:27N 59°53' E 010°45'0 0.0
2014-Nov-24 17:27N 59°53' E 010°45'0 0.0
2014-Nov-24 16:30N 59°53' E 010°45'0 0.0
2014-Nov-24 15:15N 59°53' E 010°45'0 0.0
2014-Nov-24 14:27N 59°53' E 010°45'0 0.0
2014-Nov-24 13:33N 59°53' E 010°45'0 0.0
2014-Nov-24 12:33N 59°53' E 010°45'0 0.0
2014-Nov-24 11:33N 59°53' E 010°45'0 0.0
2014-Nov-24 10:33N 59°53' E 010°45'0 0.0
2014-Nov-24 09:18N 59°53' E 010°45'0 0.0
2014-Nov-24 08:33N 59°53' E 010°45'0 0.0
2014-Nov-24 07:33N 59°53' E 010°45'0 0.0
2014-Nov-24 06:24N 59°53' E 010°45'0 0.0
2014-Nov-24 05:27N 59°53' E 010°45'0 0.0
2014-Nov-24 04:27N 59°53' E 010°45'0 0.0
2014-Nov-24 03:27N 59°53' E 010°45'0 0.0
2014-Nov-24 02:30N 59°53' E 010°45'0 0.0
2014-Nov-24 01:30N 59°53' E 010°45'0 0.0
2014-Nov-24 00:30N 59°53' E 010°45'0 0.0
2014-Nov-23 23:33N 59°53' E 010°45'1 1.3
2014-Nov-23 22:33N 59°53' E 010°43'73 1.7
2014-Nov-22 03:27N 58°39' E 010°49'8 9.4
2014-Nov-22 02:33N 58°31' E 010°53'10 9.6
2014-Nov-22 01:33N 58°22' E 010°59'1010.0
2014-Nov-22 00:33N 58°13' E 011°04'10 9.9
2014-Nov-21 23:33N 58°03' E 011°09'9 9.3
2014-Nov-21 22:33N 57°54' E 011°13'9 9.2
2014-Nov-21 21:34N 57°45' E 011°17'9 8.8
2014-Nov-21 20:33N 57°37' E 011°23'9 9.1
2014-Nov-21 19:33N 57°28' E 011°29'66 9.4
2014-Nov-21 12:34N 56°28' E 012°15'9 9.2
2014-Nov-21 11:33N 56°19' E 012°22'9 9.3
2014-Nov-21 10:33N 56°11' E 012°29'1010.2
2014-Nov-21 09:33N 56°03' E 012°40'9 9.4
2014-Nov-21 08:33N 55°54' E 012°44'9 9.4
2014-Nov-21 07:33N 55°44' E 012°42'9 9.5
2014-Nov-21 06:33N 55°35' E 012°42'9 9.2
2014-Nov-21 05:33N 55°26' E 012°42'10 9.3
2014-Nov-21 04:32N 55°16' E 012°40'53 8.7
2014-Nov-20 22:27N 54°26' E 012°12'8 9.2
2014-Nov-20 21:33N 54°18' E 012°06'9 8.6
2014-Nov-20 20:33N 54°10' E 012°07'1 0.3
2014-Nov-20 18:23N 54°09' E 012°07'0 0.0
2014-Nov-20 17:05N 54°09' E 012°07'0 0.0
2014-Nov-20 16:29N 54°09' E 012°07'0 0.0
2014-Nov-20 15:32N 54°09' E 012°07'0 0.0
2014-Nov-20 14:23N 54°09' E 012°07'0 0.0
2014-Nov-20 13:32N 54°09' E 012°07'0 0.0
2014-Nov-20 12:32N 54°09' E 012°07'0 0.0
2014-Nov-20 11:29N 54°09' E 012°07'0 0.0
2014-Nov-20 10:32N 54°09' E 012°07'0 0.0
2014-Nov-20 08:14N 54°09' E 012°07'0 0.0
2014-Nov-20 06:15N 54°09' E 012°07'2 2.1
2014-Nov-20 05:27N 54°10' E 012°06'6 6.7
2014-Nov-20 04:33N 54°16' E 012°02'6 5.8
2014-Nov-20 03:32N 54°22' E 012°05'7 7.4
2014-Nov-20 02:33N 54°28' E 012°10'38 7.2
2014-Nov-19 21:19N 55°04' E 012°34'6 7.8
2014-Nov-19 20:34N 55°10' E 012°32'8 7.8
2014-Nov-19 19:33N 55°17' E 012°30'8 7.7
2014-Nov-19 18:34N 55°24' E 012°25'8 8.0
2014-Nov-19 17:33N 55°27' E 012°12'0 0.3
2014-Nov-19 16:28N 55°27' E 012°12'0 0.0
2014-Nov-19 15:31N 55°27' E 012°12'0 0.0
2014-Nov-19 14:28N 55°27' E 012°12'0 0.0
2014-Nov-19 11:13N 55°27' E 012°12'3 1.0
2014-Nov-19 08:28N 55°28' E 012°16'8 9.4
2014-Nov-19 07:33N 55°30' E 012°31'8 8.0
2014-Nov-19 06:33N 55°35' E 012°42'9 8.8
2014-Nov-19 05:33N 55°44' E 012°41'9 9.0
2014-Nov-19 04:33N 55°53' E 012°39'9 8.8
2014-Nov-19 03:33N 56°01' E 012°38'6 6.2
2014-Nov-19 02:33N 56°06' E 012°32'7 6.9
2014-Nov-19 01:34N 56°10' E 012°21'7 6.9
2014-Nov-19 00:34N 56°14' E 012°11'6 6.3
2014-Nov-18 23:33N 56°19' E 012°03'74 8.2
2014-Nov-18 14:33N 57°28' E 011°16'8 8.2
2014-Nov-18 13:33N 57°35' E 011°07'  

Dump ship's entire track history